Time;durP1;ratioP1;P1;durP2;ratioP2;P2;SDS_P1;SDS_P2;PMS_P1;PMS_P2;Temp;Humidity;BMP_temperature;BMP_pressure;BME280_temperature;BME280_humidity;BME280_pressure;Samples;Min_cycle;Max_cycle;Signal;HPM_P1;HPM_P2
2024/03/19 00:00:52;;;;;;;27.10;22.13;;;8.30;96.30;;;7.86;100.00;98091.88;5058546;28;20504;-70
2024/03/19 00:03:19;;;;;;;27.50;22.53;;;8.40;96.20;;;7.94;100.00;98105.16;5056340;28;20481;-70
2024/03/19 00:05:46;;;;;;;28.20;22.40;;;8.40;95.80;;;7.89;100.00;98104.94;5057169;28;20555;-70
2024/03/19 00:09:13;;;;;;;28.53;22.70;;;8.40;95.30;;;8.13;99.19;98100.13;5057418;28;20471;-73
2024/03/19 00:11:40;;;;;;;28.50;23.20;;;8.40;95.80;;;7.86;98.56;98075.75;5071859;28;20462;-70
2024/03/19 00:14:08;;;;;;;31.00;22.60;;;8.40;95.20;;;8.03;98.63;98094.28;5059707;28;20695;-70
2024/03/19 00:16:36;;;;;;;27.97;22.00;;;8.40;95.00;;;7.96;99.35;98094.22;5054898;28;20478;-70
2024/03/19 00:19:04;;;;;;;27.87;21.50;;;8.40;95.10;;;7.91;99.79;98099.38;5057115;28;21116;-71
2024/03/19 00:25:13;;;;;;;31.30;21.77;;;8.30;95.50;;;7.85;100.00;98087.53;5055254;28;20478;-71
2024/03/19 00:27:40;;;;;;;28.17;23.30;;;8.30;96.20;;;7.83;99.56;98092.28;5059571;28;20465;-71
2024/03/19 00:30:09;;;;;;;29.07;22.33;;;8.30;95.60;;;7.62;100.00;98096.66;5072441;28;20481;-70
2024/03/19 00:32:38;;;;;;;26.10;22.27;;;8.10;95.00;;;7.46;100.00;98099.63;5060941;28;20471;-70
2024/03/19 00:35:09;;;;;;;29.73;23.63;;;7.90;95.50;;;7.35;100.00;98083.00;5060945;28;20478;-70
2024/03/19 01:03:27;;;;;;;37.93;26.90;;;7.20;99.90;;;6.50;100.00;98121.13;5061560;28;20473;-71
2024/03/19 01:05:56;;;;;;;37.27;26.30;;;7.10;99.90;;;6.57;100.00;98112.31;5063985;28;20470;-71
2024/03/19 01:08:24;;;;;;;35.63;26.50;;;7.10;99.90;;;6.68;100.00;98111.03;5061736;28;20486;-71
2024/03/19 01:10:51;;;;;;;35.40;27.40;;;7.10;99.90;;;6.71;100.00;98107.97;5063915;28;20466;-68
2024/03/19 01:13:18;;;;;;;38.80;26.20;;;7.20;99.90;;;6.71;100.00;98111.47;5063392;28;20500;-69
2024/03/19 01:15:45;;;;;;;35.27;26.30;;;7.20;99.90;;;6.83;100.00;98109.16;5064009;28;20470;-71
2024/03/19 01:18:13;;;;;;;37.47;27.97;;;7.30;99.90;;;6.71;100.00;98106.09;5064469;28;20469;-72
2024/03/19 01:20:41;;;;;;;40.83;28.77;;;7.20;99.90;;;6.72;100.00;98113.13;5060920;28;20860;-69
2024/03/19 01:23:09;;;;;;;41.30;29.73;;;7.20;99.90;;;6.78;100.00;98115.06;5063854;28;20495;-70
2024/03/19 01:25:36;;;;;;;41.77;29.30;;;7.20;99.90;;;6.72;100.00;98115.81;5059808;28;20488;-71
2024/03/19 01:28:04;;;;;;;40.37;29.00;;;7.20;99.90;;;6.67;100.00;98107.50;5063784;28;20467;-72
2024/03/19 01:30:31;;;;;;;39.07;28.80;;;7.20;99.90;;;6.71;100.00;98100.72;5062973;28;20535;-72
2024/03/19 01:32:58;;;;;;;38.93;28.93;;;7.20;99.90;;;6.70;100.00;98115.16;5062370;28;20589;-69
2024/03/19 01:35:25;;;;;;;39.50;28.70;;;7.20;99.90;;;6.80;100.00;98121.09;5064126;28;20469;-72
2024/03/19 01:37:55;;;;;;;39.80;29.83;;;7.20;99.90;;;6.66;100.00;98119.25;5061885;28;20467;-71
2024/03/19 01:40:22;;;;;;;37.33;28.10;;;7.20;99.90;;;6.57;100.00;98104.25;5062151;28;20933;-68
2024/03/19 01:42:49;;;;;;;44.50;30.47;;;7.10;99.90;;;6.74;100.00;98121.81;5059053;28;20473;-72
2024/03/19 01:45:22;;;;;;;40.27;29.37;;;7.20;99.90;;;6.83;100.00;98110.97;5059881;28;20475;-70
2024/03/19 01:47:51;;;;;;;40.07;29.30;;;7.20;99.90;;;6.63;100.00;98111.59;5064812;28;20478;-72
2024/03/19 01:50:19;;;;;;;39.90;28.97;;;7.20;99.90;;;6.75;100.00;98102.03;5056810;28;20483;-69
2024/03/19 01:52:51;;;;;;;39.17;28.03;;;7.20;99.90;;;6.78;100.00;98109.69;5056786;28;20478;-69
2024/03/19 01:55:23;;;;;;;42.10;29.50;;;7.20;99.90;;;6.67;100.00;98104.81;5079558;28;20465;-69
2024/03/19 01:57:52;;;;;;;42.63;28.73;;;7.10;99.90;;;6.80;100.00;98104.97;5061883;28;20478;-70
2024/03/19 02:00:20;;;;;;;43.90;30.30;;;7.20;99.90;;;6.18;100.00;98007.81;5069557;28;20490;-68
2024/03/19 02:02:47;;;;;;;38.87;28.20;;;7.20;99.90;;;6.77;100.00;98102.66;5061222;28;20546;-71
2024/03/19 02:05:15;;;;;;;43.13;30.73;;;7.20;99.90;;;6.57;100.00;98099.75;5061717;28;21005;-71
2024/03/19 02:07:42;;;;;;;38.47;27.70;;;7.10;99.90;;;6.27;100.00;98027.31;5057396;28;21225;-73
2024/03/19 02:10:10;;;;;;;38.87;29.00;;;7.10;99.90;;;6.73;100.00;98090.63;5061827;28;20513;-70
2024/03/19 02:12:39;;;;;;;39.90;28.77;;;7.10;99.90;;;6.44;100.00;98094.19;5056678;28;20621;-69
2024/03/19 02:15:07;;;;;;;39.33;28.10;;;7.00;99.90;;;5.90;100.00;98051.34;5062447;28;20474;-69
2024/03/19 02:17:35;;;;;;;41.97;30.07;;;6.80;99.90;;;6.18;100.00;98100.88;5074176;28;20472;-69
2024/03/19 02:20:12;;;;;;;42.23;31.70;;;6.60;99.90;;;6.10;100.00;98099.09;5063241;28;20493;-69
2024/03/19 02:22:42;;;;;;;38.53;27.67;;;6.50;99.90;;;6.13;100.00;98098.72;5078018;28;20519;-70
2024/03/19 02:25:09;;;;;;;42.00;30.23;;;6.50;99.90;;;6.17;100.00;98094.69;5060380;28;20484;-70
2024/03/19 02:27:37;;;;;;;40.23;29.50;;;6.60;99.90;;;6.14;100.00;98062.88;5058511;28;20484;-71
2024/03/19 02:30:06;;;;;;;41.47;29.33;;;6.70;99.90;;;6.30;100.00;98087.84;5064088;28;21024;-71
2024/03/19 02:32:33;;;;;;;43.40;30.57;;;6.70;99.90;;;6.28;100.00;98069.22;5061474;28;21352;-70
2024/03/19 02:35:00;;;;;;;44.30;30.50;;;6.80;99.90;;;6.21;100.00;98077.19;5061791;28;20635;-70
2024/03/19 02:37:27;;;;;;;40.60;28.90;;;6.80;99.90;;;6.06;100.00;98065.63;5054255;28;20473;-71
2024/03/19 02:39:56;;;;;;;43.40;31.30;;;6.60;99.90;;;6.09;100.00;98081.34;5054533;28;20486;-70
2024/03/19 02:42:24;;;;;;;43.57;32.47;;;6.50;99.90;;;6.04;100.00;98083.75;5063241;28;21092;-71
2024/03/19 02:44:51;;;;;;;49.07;31.37;;;6.60;99.90;;;5.72;100.00;98038.31;5060442;28;21113;-69
2024/03/19 02:47:19;;;;;;;45.53;31.30;;;6.50;99.90;;;6.07;100.00;98096.81;5076303;28;20800;-69
2024/03/19 02:49:46;;;;;;;47.87;31.20;;;6.50;99.90;;;5.99;100.00;98059.28;5062801;28;20502;-69
2024/03/19 02:52:14;;;;;;;44.63;31.60;;;6.60;99.90;;;6.01;100.00;98081.44;5057763;28;20486;-69
2024/03/19 02:54:41;;;;;;;44.97;31.63;;;6.50;99.90;;;5.83;100.00;98087.94;5063205;28;20469;-71
2024/03/19 02:57:09;;;;;;;45.33;31.43;;;6.40;99.90;;;5.77;100.00;98089.53;5061895;28;20877;-69
2024/03/19 02:59:37;;;;;;;45.70;32.20;;;6.30;99.90;;;5.82;100.00;98092.50;5057969;28;20480;-70
2024/03/19 03:02:04;;;;;;;47.60;31.00;;;6.30;99.90;;;5.85;100.00;98095.81;5073136;28;20494;-69
2024/03/19 03:04:31;;;;;;;42.60;31.60;;;6.30;99.90;;;5.92;100.00;98086.88;5060636;28;20482;-68
2024/03/19 03:06:59;;;;;;;44.90;30.70;;;6.40;99.90;;;5.93;100.00;98093.88;5061612;28;21348;-70
2024/03/19 03:09:26;;;;;;;47.47;32.20;;;6.40;99.90;;;6.05;100.00;98099.66;5062375;28;20464;-70
2024/03/19 03:11:53;;;;;;;46.27;32.57;;;6.50;99.90;;;6.09;100.00;98105.50;5058045;28;20471;-70
2024/03/19 03:14:22;;;;;;;52.13;34.30;;;6.50;99.90;;;6.00;100.00;98096.66;5059115;28;21034;-71
2024/03/19 03:16:50;;;;;;;46.97;32.13;;;6.50;99.90;;;6.12;100.00;98109.66;5061585;28;20479;-70
2024/03/19 03:19:17;;;;;;;45.10;32.40;;;6.50;99.90;;;6.40;100.00;98088.38;5057781;28;20465;-72
2024/03/19 03:21:44;;;;;;;46.63;32.77;;;6.80;99.90;;;6.27;100.00;98101.59;5062454;28;20541;-71
2024/03/19 03:24:11;;;;;;;47.43;30.10;;;6.80;99.90;;;6.29;100.00;98116.50;5058655;28;20479;-71
2024/03/19 03:26:39;;;;;;;41.90;30.87;;;6.70;99.90;;;6.36;100.00;98093.25;5062025;28;20483;-69
2024/03/19 03:29:06;;;;;;;44.40;31.63;;;6.80;99.90;;;6.36;100.00;98103.19;5057724;28;20487;-69
2024/03/19 03:31:35;;;;;;;42.07;30.43;;;6.80;99.90;;;6.40;100.00;98106.34;5056943;28;20474;-74
2024/03/19 03:34:02;;;;;;;43.67;33.23;;;6.90;99.90;;;6.51;100.00;98101.31;5073332;28;20526;-71
2024/03/19 03:36:29;;;;;;;42.10;32.30;;;6.90;99.90;;;6.32;100.00;98069.69;5061427;28;20521;-71
2024/03/19 03:38:57;;;;;;;45.50;32.60;;;7.00;99.90;;;6.44;100.00;98100.38;5059366;28;21058;-71
2024/03/19 03:41:25;;;;;;;51.97;34.27;;;6.90;99.90;;;6.46;100.00;98087.63;5062217;28;20890;-71
2024/03/19 03:43:52;;;;;;;50.57;34.57;;;7.00;99.90;;;6.50;100.00;98096.97;5060444;28;20478;-72
2024/03/19 03:46:19;;;;;;;52.50;33.63;;;7.00;99.90;;;6.20;100.00;98053.22;5063970;28;20470;-69
2024/03/19 03:48:47;;;;;;;48.00;33.30;;;7.00;99.90;;;6.57;100.00;98093.53;5053555;28;20471;-70
2024/03/19 03:51:15;;;;;;;45.97;33.47;;;7.00;99.90;;;6.56;100.00;98097.22;5059171;28;20484;-70
2024/03/19 03:53:42;;;;;;;43.90;32.93;;;7.10;99.90;;;6.51;100.00;98089.72;5059341;28;20474;-71
2024/03/19 03:56:10;;;;;;;44.53;32.30;;;7.10;99.90;;;6.39;100.00;98089.38;5058059;28;20573;-70
2024/03/19 03:58:37;;;;;;;42.27;31.33;;;7.00;99.90;;;6.38;100.00;98091.25;5061030;28;20467;-71
2024/03/19 04:01:05;;;;;;;45.93;32.80;;;7.00;99.90;;;6.41;100.00;98095.41;5060629;28;20497;-69
2024/03/19 04:03:32;;;;;;;44.40;31.73;;;7.00;99.90;;;6.49;100.00;98102.50;5059038;28;20474;-70
2024/03/19 04:06:01;;;;;;;43.20;31.40;;;7.00;99.90;;;6.55;100.00;98090.19;5060337;28;20479;-67
2024/03/19 04:08:28;;;;;;;43.43;32.30;;;7.00;99.90;;;6.60;100.00;98101.22;5074919;28;20467;-72
2024/03/19 04:10:56;;;;;;;45.10;32.07;;;7.00;99.90;;;6.48;100.00;98093.66;5060411;28;20496;-68
2024/03/19 04:13:23;;;;;;;48.83;32.70;;;7.00;99.90;;;6.64;100.00;98103.31;5059805;28;20477;-71
2024/03/19 04:15:51;;;;;;;44.93;32.17;;;7.10;99.90;;;6.60;100.00;98098.53;5058705;28;20480;-71
2024/03/19 04:18:18;;;;;;;43.97;31.03;;;7.10;99.90;;;6.69;100.00;98105.44;5063417;28;20562;-71
2024/03/19 04:20:46;;;;;;;43.20;31.20;;;7.10;99.90;;;6.61;100.00;98103.69;5061560;28;20543;-71
2024/03/19 04:23:14;;;;;;;39.97;31.57;;;7.10;99.90;;;6.74;100.00;98100.34;5054239;28;20529;-72
2024/03/19 04:25:42;;;;;;;46.50;32.43;;;7.20;99.90;;;6.58;100.00;98104.09;5061595;28;20474;-70
2024/03/19 04:28:09;;;;;;;45.07;32.50;;;7.20;99.90;;;6.70;100.00;98093.69;5062349;28;20503;-72
2024/03/19 04:30:36;;;;;;;44.70;30.97;;;7.20;99.90;;;6.61;100.00;98094.84;5054710;28;20482;-69
2024/03/19 04:33:04;;;;;;;44.10;29.57;;;7.20;99.90;;;6.68;100.00;98093.03;5061547;28;20462;-70
2024/03/19 04:35:31;;;;;;;43.10;31.43;;;7.20;99.90;;;6.72;100.00;98080.91;5077926;28;20474;-72
2024/03/19 04:37:59;;;;;;;39.40;31.20;;;7.30;99.90;;;6.61;100.00;98095.66;5059958;28;20471;-70
2024/03/19 04:40:27;;;;;;;40.93;29.33;;;7.20;99.80;;;6.50;100.00;98099.66;5066464;28;20492;-70
2024/03/19 04:42:55;;;;;;;40.53;32.17;;;7.10;99.70;;;6.56;100.00;98102.59;5059147;28;20566;-70
2024/03/19 04:45:22;;;;;;;40.87;30.37;;;7.10;99.90;;;6.50;100.00;98102.34;5060519;28;20497;-69
2024/03/19 04:47:49;;;;;;;45.03;29.53;;;7.10;99.70;;;6.60;100.00;98101.22;5062766;28;21030;-72
2024/03/19 04:50:17;;;;;;;42.80;30.23;;;7.10;99.90;;;6.34;100.00;98099.84;5058241;28;20469;-70
2024/03/19 04:52:44;;;;;;;46.90;31.27;;;7.00;99.90;;;6.64;100.00;98099.81;5057842;28;20497;-69
2024/03/19 04:55:12;;;;;;;36.30;28.40;;;7.10;99.90;;;6.59;100.00;98102.22;5060572;28;20479;-70
2024/03/19 04:57:41;;;;;;;44.10;31.63;;;7.20;99.90;;;6.42;100.00;98086.31;5060364;28;20468;-71
2024/03/19 05:00:14;;;;;;;40.23;29.47;;;7.20;99.60;;;6.67;100.00;98104.81;5059229;28;20563;-69
2024/03/19 05:02:41;;;;;;;45.23;29.07;;;7.20;99.50;;;6.43;100.00;98105.97;5057101;28;20485;-69
2024/03/19 05:05:08;;;;;;;42.47;29.77;;;7.10;99.40;;;6.50;100.00;98121.13;5062690;28;20486;-71
2024/03/19 05:07:35;;;;;;;42.47;29.30;;;7.10;99.80;;;6.58;100.00;98105.94;5057539;28;20486;-72
2024/03/19 05:10:03;;;;;;;44.63;30.30;;;7.10;99.90;;;6.31;100.00;98084.94;5057961;28;20464;-73
2024/03/19 05:12:30;;;;;;;39.47;30.63;;;7.10;99.90;;;6.57;100.00;98115.84;5060927;28;20504;-69
2024/03/19 05:14:59;;;;;;;43.27;30.70;;;7.20;99.90;;;6.43;100.00;98101.41;5055269;28;20462;-69
2024/03/19 05:17:27;;;;;;;46.77;32.77;;;7.10;99.60;;;6.41;100.00;98108.81;5059291;28;20461;-69
2024/03/19 05:19:54;;;;;;;43.73;31.33;;;7.10;99.40;;;6.46;100.00;98111.78;5059301;28;20476;-69
2024/03/19 05:22:21;;;;;;;42.60;30.10;;;7.10;99.90;;;6.75;100.00;98112.78;5059654;28;20564;-71
2024/03/19 05:24:48;;;;;;;42.87;31.43;;;7.20;99.90;;;6.76;100.00;98114.44;5051269;28;20469;-70
2024/03/19 05:27:16;;;;;;;47.73;31.00;;;7.30;99.50;;;6.74;100.00;98113.75;5057044;28;20473;-69
2024/03/19 05:29:43;;;;;;;45.07;30.37;;;7.30;98.80;;;6.62;100.00;98136.78;5060290;28;20477;-69
2024/03/19 05:32:12;;;;;;;48.03;31.30;;;7.30;98.60;;;6.75;100.00;98107.41;5056982;28;20471;-71
2024/03/19 05:34:39;;;;;;;42.73;29.77;;;7.30;98.40;;;6.59;100.00;98121.00;5056465;28;20478;-70
2024/03/19 05:37:06;;;;;;;41.33;30.77;;;7.30;97.80;;;6.73;100.00;98128.22;5057778;28;20510;-71
2024/03/19 05:39:34;;;;;;;44.80;31.17;;;7.30;98.80;;;6.22;100.00;98057.38;5051743;28;20475;-70
2024/03/19 05:42:01;;;;;;;42.70;31.13;;;7.30;98.40;;;6.69;100.00;98129.63;5062060;28;20498;-70
2024/03/19 05:44:28;;;;;;;43.13;30.17;;;7.30;98.30;;;6.79;100.00;98129.31;5060547;28;20476;-71
2024/03/19 05:46:56;;;;;;;43.57;30.30;;;7.30;98.20;;;6.91;100.00;98140.44;5059966;28;20540;-70
2024/03/19 05:49:25;;;;;;;45.30;33.10;;;7.40;98.30;;;6.77;100.00;98132.22;5063107;28;20533;-70
2024/03/19 05:51:52;;;;;;;46.93;30.87;;;7.40;97.80;;;6.53;100.00;98119.94;5061800;28;20478;-72
2024/03/19 05:54:20;;;;;;;44.50;31.63;;;7.30;97.70;;;6.77;100.00;98129.53;5063048;28;20465;-72
2024/03/19 05:56:47;;;;;;;44.60;30.13;;;7.40;98.00;;;6.86;100.00;98138.31;5059384;28;21061;-71
2024/03/19 05:59:14;;;;;;;40.87;30.57;;;7.40;98.00;;;6.80;100.00;98125.59;5057448;28;20478;-69
2024/03/19 06:01:41;;;;;;;47.27;30.37;;;7.40;97.40;;;7.12;100.00;98130.72;5059965;28;20972;-69
2024/03/19 06:04:08;;;;;;;60.57;39.97;;;7.60;97.70;;;7.16;100.00;98145.44;5060300;28;21184;-70
2024/03/19 06:06:37;;;;;;;43.27;30.30;;;7.70;96.00;;;7.15;100.00;98133.03;5060819;28;20473;-71
2024/03/19 06:09:04;;;;;;;38.30;29.10;;;7.70;95.60;;;7.33;100.00;98136.09;5058296;28;21023;-74
2024/03/19 06:11:32;;;;;;;41.93;31.47;;;7.80;95.80;;;7.29;100.00;98150.94;5060596;28;20474;-72
2024/03/19 06:14:00;;;;;;;38.03;28.87;;;7.80;95.30;;;7.24;100.00;98148.03;5062079;28;20469;-71
2024/03/19 06:16:27;;;;;;;42.97;30.00;;;7.90;94.60;;;7.25;100.00;98143.47;5063298;28;20478;-71
2024/03/19 06:18:54;;;;;;;43.10;31.00;;;7.90;94.80;;;7.39;99.73;98147.13;5062087;28;20480;-72
2024/03/19 06:21:22;;;;;;;41.20;29.67;;;8.00;94.10;;;7.10;99.49;98157.78;5060228;28;20853;-72
2024/03/19 06:23:51;;;;;;;39.10;27.30;;;7.90;93.30;;;6.82;100.00;98134.31;5058226;28;20477;-73
2024/03/19 06:26:18;;;;;;;37.43;27.33;;;7.70;94.20;;;7.06;100.00;98162.72;5060475;28;20532;-74
2024/03/19 06:28:45;;;;;;;38.07;27.77;;;7.70;94.80;;;7.11;99.50;98115.63;5059083;28;20491;-77
2024/03/19 06:31:12;;;;;;;39.83;28.90;;;7.90;94.90;;;7.18;100.00;98159.50;5058340;28;20477;-75
2024/03/19 06:33:40;;;;;;;38.57;29.20;;;7.90;94.30;;;7.42;99.77;98160.19;5056227;28;20473;-73
2024/03/19 06:36:10;;;;;;;38.53;27.27;;;8.00;94.40;;;7.35;98.48;98162.81;5061450;28;20468;-73
2024/03/19 06:38:38;;;;;;;38.03;28.00;;;8.10;93.00;;;6.94;98.61;98108.63;5060909;28;21021;-73
2024/03/19 06:41:06;;;;;;;34.90;26.40;;;8.00;92.80;;;7.44;98.30;98158.97;5056719;28;20483;-73
2024/03/19 06:43:35;;;;;;;38.00;26.57;;;8.10;92.90;;;7.44;98.09;98142.84;5070743;28;20803;-73
2024/03/19 06:46:03;;;;;;;34.73;25.37;;;8.10;93.00;;;7.71;96.78;98163.75;5059353;28;21212;-72
2024/03/19 06:48:30;;;;;;;35.07;25.97;;;8.30;92.70;;;7.91;97.30;98161.25;5058631;28;20483;-73
2024/03/19 06:50:57;;;;;;;36.57;28.63;;;8.40;92.70;;;7.75;95.39;98165.03;5061575;28;20484;-75
2024/03/19 06:53:24;;;;;;;33.33;24.77;;;8.50;91.60;;;7.50;96.55;98168.94;5056929;28;20876;-74
2024/03/19 06:55:51;;;;;;;29.17;23.60;;;8.30;91.50;;;7.66;95.51;98169.72;5061914;28;20479;-76
2024/03/19 06:58:21;;;;;;;33.77;24.63;;;8.40;91.70;;;7.54;96.44;98182.00;5059771;28;20498;-73
2024/03/19 07:00:51;;;;;;;34.60;26.77;;;8.30;91.80;;;7.47;96.74;98179.25;5061632;28;21003;-73
2024/03/19 07:03:18;;;;;;;34.80;26.60;;;8.20;91.80;;;7.20;98.11;98178.97;5055869;28;20470;-73
2024/03/19 07:05:46;;;;;;;36.00;27.60;;;8.10;92.10;;;7.31;98.32;98186.53;5067113;28;20466;-74
2024/03/19 07:08:13;;;;;;;37.93;28.00;;;8.00;92.70;;;7.37;98.96;98199.22;5060916;28;20495;-73
2024/03/19 07:10:41;;;;;;;39.00;27.13;;;8.00;93.20;;;7.30;98.89;98194.81;5060949;28;20626;-74
2024/03/19 07:13:08;;;;;;;37.50;27.73;;;8.00;93.00;;;7.47;98.52;98206.97;5075339;28;20502;-74
2024/03/19 07:15:38;;;;;;;35.90;26.83;;;8.10;93.40;;;7.25;100.00;98198.06;5063440;28;20466;-74
2024/03/19 07:18:08;;;;;;;38.23;28.23;;;8.00;93.70;;;7.54;99.12;98209.75;5063335;28;20564;-74
2024/03/19 07:20:36;;;;;;;40.13;28.40;;;8.20;93.60;;;7.99;97.98;98217.59;5062957;28;20479;-74
2024/03/19 07:23:05;;;;;;;40.43;30.00;;;8.50;93.10;;;8.11;95.25;98196.38;5053584;28;20476;-73
2024/03/19 07:25:32;;;;;;;37.37;28.40;;;8.80;92.00;;;7.72;97.56;98205.78;5054699;28;20485;-74
2024/03/19 07:27:59;;;;;;;44.03;29.80;;;8.60;91.80;;;7.67;98.18;98210.91;5055957;28;20469;-75
2024/03/19 07:30:27;;;;;;;42.57;29.97;;;8.50;92.10;;;7.66;97.81;98204.69;5054665;28;20567;-73
2024/03/19 07:32:56;;;;;;;40.93;27.70;;;8.50;92.20;;;7.64;98.36;98209.41;5059669;28;20468;-73
2024/03/19 07:35:23;;;;;;;36.60;26.60;;;8.40;92.50;;;8.13;96.41;98220.41;5058767;28;23044;-73
2024/03/19 07:37:50;;;;;;;37.60;26.83;;;8.60;92.80;;;8.44;93.88;98211.94;5064853;28;20973;-73
2024/03/19 07:40:20;;;;;;;36.43;26.70;;;8.90;91.90;;;8.70;92.90;98215.84;5070408;28;20473;-74
2024/03/19 07:42:50;;;;;;;32.43;25.03;;;9.10;91.40;;;8.27;93.31;98215.97;5062784;28;20573;-73
2024/03/19 07:45:18;;;;;;;36.20;27.70;;;9.00;90.80;;;8.25;94.30;98223.38;5060341;28;20518;-73
2024/03/19 07:47:46;;;;;;;33.67;25.00;;;8.90;91.30;;;8.50;93.53;98238.09;5062863;28;20472;-73
2024/03/19 07:50:18;;;;;;;43.80;30.03;;;9.00;91.30;;;7.91;94.13;98158.56;5059955;28;20593;-71
2024/03/19 07:52:46;;;;;;;42.33;29.10;;;9.00;91.30;;;7.99;96.10;98203.31;5059768;28;20484;-89
2024/03/19 07:55:13;;;;;;;35.87;27.60;;;8.80;91.50;;;8.22;94.91;98225.44;5079233;28;21354;-86
2024/03/19 07:57:40;;;;;;;35.50;26.40;;;8.80;91.60;;;8.00;96.65;98223.81;5054571;28;20483;-72
2024/03/19 08:00:11;;;;;;;36.40;27.23;;;8.70;91.80;;;8.18;96.04;98217.94;5056889;28;20477;-69
2024/03/19 08:02:39;;;;;;;35.10;26.97;;;8.80;92.20;;;8.37;94.66;98221.81;5053249;28;20495;-73
2024/03/19 08:05:08;;;;;;;37.70;28.30;;;8.80;92.20;;;8.03;94.76;98183.88;5057372;28;20520;-72
2024/03/19 08:07:37;;;;;;;37.70;26.43;;;8.80;91.90;;;8.17;95.37;98227.06;5076035;28;20477;-73
2024/03/19 08:10:05;;;;;;;37.83;27.50;;;8.90;91.80;;;8.10;95.75;98224.31;5061284;28;20476;-71
2024/03/19 08:12:35;;;;;;;42.60;28.90;;;8.80;91.80;;;8.40;95.14;98228.69;5058773;28;20556;-72
2024/03/19 08:15:03;;;;;;;41.90;27.77;;;8.90;92.10;;;8.38;95.38;98223.47;5057801;28;20495;-71
2024/03/19 08:17:32;;;;;;;33.80;27.30;;;9.00;91.80;;;8.38;94.64;98226.19;5057127;28;20501;-72
2024/03/19 08:20:00;;;;;;;34.67;27.23;;;9.00;91.60;;;8.54;93.55;98221.53;5061233;28;20561;-71
2024/03/19 08:22:27;;;;;;;33.00;26.00;;;9.20;91.20;;;8.63;92.63;98221.19;5078341;28;20477;-83
2024/03/19 08:24:56;;;;;;;32.77;25.73;;;9.20;90.90;;;8.63;92.33;98223.88;5056359;28;20479;-75
2024/03/19 08:27:25;;;;;;;35.17;25.00;;;9.30;90.70;;;8.79;90.56;98214.66;5058648;28;20537;-71
2024/03/19 08:29:53;;;;;;;32.17;24.30;;;9.30;90.60;;;9.22;89.75;98223.56;5058528;28;20532;-70
2024/03/19 08:32:20;;;;;;;32.57;26.17;;;9.60;90.60;;;9.39;88.17;98224.03;5057268;28;20590;-71
2024/03/19 08:34:47;;;;;;;29.67;23.70;;;9.80;90.10;;;9.55;85.59;98235.47;5056361;28;20525;-71
2024/03/19 08:37:14;;;;;;;28.23;21.90;;;10.00;88.00;;;9.49;83.73;98231.75;5048557;28;20508;-70
2024/03/19 08:39:41;;;;;;;27.77;21.10;;;10.10;86.00;;;9.79;83.58;98223.31;5054161;28;20480;-71
2024/03/19 08:42:10;;;;;;;29.60;22.27;;;10.20;86.00;;;9.96;80.98;98229.13;5055646;28;21031;-72
2024/03/19 08:44:37;;;;;;;27.80;22.00;;;10.40;85.30;;;9.86;81.40;98228.72;5058028;28;20992;-71
2024/03/19 08:47:06;;;;;;;27.10;20.67;;;10.40;84.50;;;10.01;79.31;98225.81;5057147;28;20526;-71
2024/03/19 08:49:33;;;;;;;27.30;20.00;;;10.50;83.80;;;10.24;78.13;98228.09;5057038;28;20474;-73
2024/03/19 08:52:01;;;;;;;23.00;19.47;;;10.70;83.40;;;10.54;76.13;98232.25;5058739;28;21001;-70
2024/03/19 08:54:29;;;;;;;23.77;21.23;;;10.80;82.90;;;10.41;75.78;98235.81;5054613;28;20915;-70
2024/03/19 08:56:56;;;;;;;24.33;18.90;;;11.00;82.10;;;10.17;74.38;98171.41;5059162;28;20222;-70
2024/03/19 08:59:25;;;;;;;24.73;19.17;;;11.00;81.40;;;10.35;75.23;98195.06;5059851;28;20475;-73
2024/03/19 09:01:52;;;;;;;25.20;18.10;;;11.10;81.30;;;10.63;74.52;98234.53;5055409;28;20515;-72
2024/03/19 09:04:20;;;;;;;23.50;18.03;;;11.20;81.10;;;10.82;72.89;98242.81;5058526;28;20555;-73
2024/03/19 09:06:47;;;;;;;22.70;17.40;;;11.20;80.50;;;11.09;72.48;98242.75;5057007;28;20487;-72
2024/03/19 09:09:15;;;;;;;22.00;16.70;;;11.40;80.50;;;11.14;70.38;98245.63;5054083;28;20482;-73
2024/03/19 09:11:42;;;;;;;22.60;16.63;;;11.60;79.40;;;10.97;70.77;98234.44;5058512;28;20462;-73
2024/03/19 09:14:09;;;;;;;18.83;15.40;;;11.60;78.80;;;11.09;69.67;98248.16;5060330;28;20535;-74
2024/03/19 09:16:38;;;;;;;20.40;14.27;;;11.60;78.40;;;11.39;69.34;98241.38;5077620;28;20475;-76
2024/03/19 09:19:05;;;;;;;22.90;15.70;;;11.70;78.50;;;11.60;69.33;98224.84;5064339;28;20479;-76
2024/03/19 09:21:32;;;;;;;19.40;17.30;;;11.90;78.40;;;11.85;67.79;98232.16;5056241;28;20461;-74
2024/03/19 09:23:59;;;;;;;16.13;14.00;;;12.10;77.90;;;11.78;67.17;98239.50;5057191;28;20207;-75
2024/03/19 09:26:26;;;;;;;15.60;13.80;;;12.20;77.00;;;11.76;67.09;98247.03;5062184;28;20495;-76
2024/03/19 09:28:54;;;;;;;16.27;13.70;;;12.20;76.80;;;11.84;66.28;98235.91;5066767;28;20579;-76
2024/03/19 09:31:21;;;;;;;14.70;13.10;;;12.20;76.40;;;11.61;66.02;98229.19;5062088;28;20659;-76
2024/03/19 09:33:50;;;;;;;14.70;12.40;;;12.20;75.90;;;12.00;65.71;98233.72;5059932;28;20479;-77
2024/03/19 09:36:19;;;;;;;15.07;12.53;;;12.30;76.00;;;11.94;66.13;98229.19;5060250;28;21140;-75
2024/03/19 09:38:48;;;;;;;15.00;12.70;;;12.40;76.00;;;11.84;66.44;98226.97;5062454;28;20473;-77
2024/03/19 09:41:16;;;;;;;13.13;10.77;;;12.40;76.00;;;11.86;66.08;98230.28;5055122;28;20477;-77
2024/03/19 09:43:43;;;;;;;13.33;10.27;;;12.40;75.60;;;12.12;65.07;98236.56;5065108;28;20979;-77
2024/03/19 09:46:14;;;;;;;12.77;11.37;;;12.50;75.20;;;12.33;64.31;98238.06;5077263;28;20471;-75
2024/03/19 09:48:43;;;;;;;13.77;11.20;;;12.70;74.90;;;12.27;64.25;98237.06;5050894;28;20487;-74
2024/03/19 09:51:21;;;;;;;13.03;11.43;;;12.80;74.80;;;12.25;63.63;98224.81;5058204;28;20483;-74
2024/03/19 09:53:48;;;;;;;12.57;10.40;;;12.80;74.40;;;12.35;63.51;98238.69;5059323;28;20471;-74
2024/03/19 09:56:19;;;;;;;13.67;11.40;;;12.90;74.00;;;12.30;63.68;98236.66;5062282;28;20484;-73
2024/03/19 09:58:51;;;;;;;14.17;11.07;;;12.90;74.00;;;12.34;63.64;98228.91;5061251;28;20586;-73
2024/03/19 10:01:18;;;;;;;13.27;10.37;;;12.90;73.80;;;12.45;63.25;98239.00;5059407;28;20581;-72
2024/03/19 10:03:45;;;;;;;11.10;9.40;;;12.90;73.70;;;12.48;62.72;98232.34;5060134;28;20979;-73
2024/03/19 10:06:16;;;;;;;10.83;9.73;;;13.00;73.40;;;12.42;63.06;98217.78;5054636;28;20539;-75
2024/03/19 10:08:45;;;;;;;12.53;10.40;;;13.00;73.30;;;12.49;62.39;98216.88;5054961;28;20597;-74
2024/03/19 10:11:13;;;;;;;11.50;9.30;;;13.00;73.20;;;12.57;63.04;98230.97;5060311;28;20468;-77
2024/03/19 10:13:40;;;;;;;14.97;9.40;;;13.10;73.40;;;12.69;63.27;98230.25;5058671;28;20860;-76
2024/03/19 10:16:08;;;;;;;10.97;9.50;;;13.20;73.60;;;12.68;61.92;98220.47;5056118;28;20488;-76
2024/03/19 10:18:36;;;;;;;12.93;10.50;;;13.30;72.90;;;12.92;62.29;98231.50;5059407;28;20478;-78
2024/03/19 10:21:06;;;;;;;11.30;9.80;;;13.40;73.10;;;13.01;61.91;98220.13;5063540;28;20515;-75
2024/03/19 10:23:36;;;;;;;9.70;8.67;;;13.50;73.00;;;13.05;61.01;98223.22;5059621;28;20494;-75
2024/03/19 10:26:03;;;;;;;10.17;9.00;;;13.60;72.30;;;13.16;61.04;98233.28;5055027;28;20538;-76
2024/03/19 10:28:30;;;;;;;10.47;9.10;;;13.60;72.00;;;13.44;60.39;98228.41;5054371;28;20538;-75
2024/03/19 10:30:59;;;;;;;11.73;9.93;;;13.90;72.10;;;13.42;59.53;98233.16;5061887;28;20446;-74
2024/03/19 10:33:29;;;;;;;10.73;9.63;;;14.00;71.50;;;13.51;60.18;98233.75;5072594;28;20546;-71
2024/03/19 10:35:59;;;;;;;13.00;11.00;;;14.00;71.50;;;13.32;60.56;98220.16;5057947;28;20494;-77
2024/03/19 10:38:28;;;;;;;10.70;9.60;;;14.00;71.30;;;13.75;59.68;98226.50;5056941;28;21092;-76
2024/03/19 10:40:57;;;;;;;9.73;8.73;;;14.10;71.30;;;13.92;58.14;98214.97;5071026;28;20469;-76
2024/03/19 10:43:26;;;;;;;10.70;9.60;;;14.30;70.60;;;13.76;58.21;98225.44;5059960;28;20553;-75
2024/03/19 10:45:54;;;;;;;11.80;9.80;;;14.30;70.20;;;13.80;58.86;98210.34;5063276;28;20483;-76